sensor_id;sensor_type;location;lat;lon;timestamp;pressure;altitude;pressure_sealevel;temperature;humidity
9141;BME280;46330;50.822;7.126;2023-04-05T00:01:04;101695.31;;;3.32;59.74
9141;BME280;46330;50.822;7.126;2023-04-05T00:03:33;101690.22;;;3.35;60.44
9141;BME280;46330;50.822;7.126;2023-04-05T00:06:02;101693.66;;;3.34;60.66
9141;BME280;46330;50.822;7.126;2023-04-05T00:08:31;101691.13;;;3.37;60.32
9141;BME280;46330;50.822;7.126;2023-04-05T00:10:58;101683.28;;;3.33;60.67
9141;BME280;46330;50.822;7.126;2023-04-05T00:13:28;101683.13;;;3.27;61.44
9141;BME280;46330;50.822;7.126;2023-04-05T00:15:56;101683.78;;;3.19;61.90
9141;BME280;46330;50.822;7.126;2023-04-05T00:18:27;101678.34;;;3.10;62.60
9141;BME280;46330;50.822;7.126;2023-04-05T00:21:00;101675.78;;;3.12;62.42
9141;BME280;46330;50.822;7.126;2023-04-05T00:23:28;101667.06;;;3.08;62.87
9141;BME280;46330;50.822;7.126;2023-04-05T00:26:05;101672.31;;;3.10;62.23
9141;BME280;46330;50.822;7.126;2023-04-05T00:28:35;101669.38;;;2.98;63.33
9141;BME280;46330;50.822;7.126;2023-04-05T00:31:04;101664.16;;;2.96;64.19
9141;BME280;46330;50.822;7.126;2023-04-05T00:33:32;101664.16;;;2.96;65.22
9141;BME280;46330;50.822;7.126;2023-04-05T00:36:10;101668.38;;;2.93;65.11
9141;BME280;46330;50.822;7.126;2023-04-05T00:38:39;101675.34;;;2.95;64.86
9141;BME280;46330;50.822;7.126;2023-04-05T00:41:07;101664.13;;;2.95;65.91
9141;BME280;46330;50.822;7.126;2023-04-05T00:43:37;101674.31;;;2.90;65.29
9141;BME280;46330;50.822;7.126;2023-04-05T00:46:05;101668.00;;;2.79;66.75
9141;BME280;46330;50.822;7.126;2023-04-05T00:48:34;101679.38;;;2.86;66.09
9141;BME280;46330;50.822;7.126;2023-04-05T00:51:02;101671.47;;;2.80;66.28
9141;BME280;46330;50.822;7.126;2023-04-05T00:53:30;101668.88;;;2.80;66.63
9141;BME280;46330;50.822;7.126;2023-04-05T00:55:59;101673.34;;;2.85;67.39
9141;BME280;46330;50.822;7.126;2023-04-05T00:58:27;101669.75;;;2.80;67.44
9141;BME280;46330;50.822;7.126;2023-04-05T01:01:02;101669.88;;;2.85;67.36
9141;BME280;46330;50.822;7.126;2023-04-05T01:03:34;101665.59;;;2.85;67.59
9141;BME280;46330;50.822;7.126;2023-04-05T01:06:16;101661.06;;;2.78;68.23
9141;BME280;46330;50.822;7.126;2023-04-05T01:08:57;101674.91;;;2.80;67.97
9141;BME280;46330;50.822;7.126;2023-04-05T01:11:27;101660.34;;;2.84;68.23
9141;BME280;46330;50.822;7.126;2023-04-05T01:13:58;101660.28;;;2.81;67.65
9141;BME280;46330;50.822;7.126;2023-04-05T01:16:27;101660.28;;;2.81;68.10
9141;BME280;46330;50.822;7.126;2023-04-05T01:18:55;101657.00;;;2.86;68.31
9141;BME280;46330;50.822;7.126;2023-04-05T01:25:01;101653.31;;;2.78;69.36
9141;BME280;46330;50.822;7.126;2023-04-05T01:27:52;101654.06;;;2.74;68.80
9141;BME280;46330;50.822;7.126;2023-04-05T01:30:27;101653.22;;;2.75;68.66
9141;BME280;46330;50.822;7.126;2023-04-05T01:33:05;101652.25;;;2.71;68.14
9141;BME280;46330;50.822;7.126;2023-04-05T01:35:40;101642.78;;;2.70;68.66
9141;BME280;46330;50.822;7.126;2023-04-05T01:38:12;101641.94;;;2.71;68.54
9141;BME280;46330;50.822;7.126;2023-04-05T01:40:44;101652.06;;;2.64;68.80
9141;BME280;46330;50.822;7.126;2023-04-05T01:43:13;101649.56;;;2.67;69.09
9141;BME280;46330;50.822;7.126;2023-04-05T01:45:43;101646.97;;;2.67;68.34
9141;BME280;46330;50.822;7.126;2023-04-05T01:48:11;101650.38;;;2.66;67.87
9141;BME280;46330;50.822;7.126;2023-04-05T01:50:40;101646.75;;;2.59;68.35
9141;BME280;46330;50.822;7.126;2023-04-05T01:53:08;101647.06;;;2.70;68.19
9141;BME280;46330;50.822;7.126;2023-04-05T01:55:36;101640.84;;;2.63;68.60
9141;BME280;46330;50.822;7.126;2023-04-05T01:58:04;101644.25;;;2.62;69.28
9141;BME280;46330;50.822;7.126;2023-04-05T02:00:33;101643.59;;;2.69;68.87
9141;BME280;46330;50.822;7.126;2023-04-05T02:03:02;101633.28;;;2.69;68.51
9141;BME280;46330;50.822;7.126;2023-04-05T02:05:30;101629.72;;;2.66;68.83
9141;BME280;46330;50.822;7.126;2023-04-05T02:07:58;101630.53;;;2.63;68.63
9141;BME280;46330;50.822;7.126;2023-04-05T02:10:26;101625.44;;;2.66;69.21
9141;BME280;46330;50.822;7.126;2023-04-05T02:12:54;101632.19;;;2.61;68.86
9141;BME280;46330;50.822;7.126;2023-04-05T02:15:23;101635.59;;;2.60;69.73
9141;BME280;46330;50.822;7.126;2023-04-05T02:17:51;101633.63;;;2.52;69.31
9141;BME280;46330;50.822;7.126;2023-04-05T02:20:21;101630.91;;;2.47;70.13
9141;BME280;46330;50.822;7.126;2023-04-05T02:22:51;101637.75;;;2.45;70.38
9141;BME280;46330;50.822;7.126;2023-04-05T02:25:19;101628.94;;;2.39;70.09
9141;BME280;46330;50.822;7.126;2023-04-05T02:27:47;101634.88;;;2.36;70.44
9141;BME280;46330;50.822;7.126;2023-04-05T02:30:15;101627.91;;;2.34;70.42
9141;BME280;46330;50.822;7.126;2023-04-05T02:32:44;101628.94;;;2.39;71.23
9141;BME280;46330;50.822;7.126;2023-04-05T02:35:12;101635.72;;;2.35;70.11
9141;BME280;46330;50.822;7.126;2023-04-05T02:37:44;101638.41;;;2.40;70.39
9141;BME280;46330;50.822;7.126;2023-04-05T02:40:13;101636.63;;;2.37;70.38
9141;BME280;46330;50.822;7.126;2023-04-05T02:42:41;101622.81;;;2.35;71.12
9141;BME280;46330;50.822;7.126;2023-04-05T02:45:09;101618.09;;;2.22;71.50
9141;BME280;46330;50.822;7.126;2023-04-05T02:47:37;101627.44;;;2.18;71.17
9141;BME280;46330;50.822;7.126;2023-04-05T02:50:06;101623.16;;;2.19;70.77
9141;BME280;46330;50.822;7.126;2023-04-05T02:52:40;101621.47;;;2.20;70.87
9141;BME280;46330;50.822;7.126;2023-04-05T02:55:10;101627.53;;;2.22;72.43
9141;BME280;46330;50.822;7.126;2023-04-05T02:57:38;101621.38;;;2.16;72.75
9141;BME280;46330;50.822;7.126;2023-04-05T03:00:19;101617.59;;;2.05;72.05
9141;BME280;46330;50.822;7.126;2023-04-05T03:02:48;101626.94;;;2.02;72.12
9141;BME280;46330;50.822;7.126;2023-04-05T03:05:17;101625.19;;;2.01;72.07
9141;BME280;46330;50.822;7.126;2023-04-05T03:07:49;101623.94;;;1.88;72.85
9141;BME280;46330;50.822;7.126;2023-04-05T03:10:24;101621.97;;;1.81;72.75
9141;BME280;46330;50.822;7.126;2023-04-05T03:13:01;101627.09;;;1.80;72.50
9141;BME280;46330;50.822;7.126;2023-04-05T03:15:31;101625.44;;;1.82;73.31
9141;BME280;46330;50.822;7.126;2023-04-05T03:18:04;101624.31;;;1.74;73.23
9141;BME280;46330;50.822;7.126;2023-04-05T03:20:33;101630.19;;;1.70;73.61
9141;BME280;46330;50.822;7.126;2023-04-05T03:23:12;101623.25;;;1.67;74.40
9141;BME280;46330;50.822;7.126;2023-04-05T03:25:41;101616.91;;;1.57;73.85
9141;BME280;46330;50.822;7.126;2023-04-05T03:28:10;101625.34;;;1.52;74.72
9141;BME280;46330;50.822;7.126;2023-04-05T03:30:42;101632.50;;;1.35;75.10
9141;BME280;46330;50.822;7.126;2023-04-05T03:33:16;101627.13;;;1.29;75.17
9141;BME280;46330;50.822;7.126;2023-04-05T03:35:47;101629.00;;;1.33;75.81
9141;BME280;46330;50.822;7.126;2023-04-05T03:38:16;101630.22;;;1.19;75.97
9141;BME280;46330;50.822;7.126;2023-04-05T03:41:05;101629.41;;;1.20;76.30
9141;BME280;46330;50.822;7.126;2023-04-05T03:43:34;101623.34;;;1.18;76.32
9141;BME280;46330;50.822;7.126;2023-04-05T03:46:04;101624.16;;;1.17;76.50
9141;BME280;46330;50.822;7.126;2023-04-05T03:48:32;101628.22;;;1.11;76.64
9141;BME280;46330;50.822;7.126;2023-04-05T03:51:00;101625.69;;;1.12;77.31
9141;BME280;46330;50.822;7.126;2023-04-05T03:53:28;101622.03;;;1.05;78.20
9141;BME280;46330;50.822;7.126;2023-04-05T03:55:58;101609.84;;;1.01;77.40
9141;BME280;46330;50.822;7.126;2023-04-05T03:58:44;101606.16;;;0.93;78.14
9141;BME280;46330;50.822;7.126;2023-04-05T04:01:14;101610.44;;;0.93;78.35
9141;BME280;46330;50.822;7.126;2023-04-05T04:03:42;101615.25;;;0.84;78.75
9141;BME280;46330;50.822;7.126;2023-04-05T04:06:10;101615.03;;;0.78;79.80
9141;BME280;46330;50.822;7.126;2023-04-05T04:08:38;101604.63;;;0.75;79.60
9141;BME280;46330;50.822;7.126;2023-04-05T04:11:06;101611.19;;;0.67;80.22
9141;BME280;46330;50.822;7.126;2023-04-05T04:13:37;101609.31;;;0.63;79.56
9141;BME280;46330;50.822;7.126;2023-04-05T04:16:19;101613.91;;;0.47;80.68
9141;BME280;46330;50.822;7.126;2023-04-05T04:19:05;101604.72;;;0.54;81.10
9141;BME280;46330;50.822;7.126;2023-04-05T04:21:45;101609.50;;;0.43;81.35
9141;BME280;46330;50.822;7.126;2023-04-05T04:24:23;101603.47;;;0.43;81.08
9141;BME280;46330;50.822;7.126;2023-04-05T04:27:09;101613.75;;;0.43;81.15
9141;BME280;46330;50.822;7.126;2023-04-05T04:30:03;101609.31;;;0.39;81.27
9141;BME280;46330;50.822;7.126;2023-04-05T04:32:47;101610.09;;;0.38;81.41
9141;BME280;46330;50.822;7.126;2023-04-05T04:35:46;101608.31;;;0.35;81.43
9141;BME280;46330;50.822;7.126;2023-04-05T04:38:31;101610.72;;;0.31;81.79
9141;BME280;46330;50.822;7.126;2023-04-05T04:41:19;101597.97;;;0.34;81.37
9141;BME280;46330;50.822;7.126;2023-04-05T04:44:10;101606.31;;;0.28;81.44
9141;BME280;46330;50.822;7.126;2023-04-05T04:47:00;101604.59;;;0.27;81.30
9141;BME280;46330;50.822;7.126;2023-04-05T04:50:04;101599.59;;;0.32;81.25
9141;BME280;46330;50.822;7.126;2023-04-05T04:52:32;101608.78;;;0.25;81.85
9141;BME280;46330;50.822;7.126;2023-04-05T04:55:01;101608.53;;;0.19;81.86
9141;BME280;46330;50.822;7.126;2023-04-05T04:57:29;101614.41;;;0.15;82.13
9141;BME280;46330;50.822;7.126;2023-04-05T04:59:57;101617.84;;;0.16;82.19
9141;BME280;46330;50.822;7.126;2023-04-05T05:02:26;101624.69;;;0.15;81.83
9141;BME280;46330;50.822;7.126;2023-04-05T05:04:57;101626.28;;;0.12;82.84
9141;BME280;46330;50.822;7.126;2023-04-05T05:07:26;101622.75;;;0.10;82.80
9141;BME280;46330;50.822;7.126;2023-04-05T05:09:54;101618.47;;;0.10;82.42
9141;BME280;46330;50.822;7.126;2023-04-05T05:12:22;101621.78;;;0.06;83.12
9141;BME280;46330;50.822;7.126;2023-04-05T05:14:52;101615.91;;;0.10;82.73
9141;BME280;46330;50.822;7.126;2023-04-05T05:17:22;101611.88;;;0.17;82.72
9141;BME280;46330;50.822;7.126;2023-04-05T05:19:50;101611.78;;;0.14;82.74
9141;BME280;46330;50.822;7.126;2023-04-05T05:22:21;101610.88;;;0.13;82.32
9141;BME280;46330;50.822;7.126;2023-04-05T05:24:50;101617.13;;;0.20;82.12
9141;BME280;46330;50.822;7.126;2023-04-05T05:27:18;101622.41;;;0.23;82.35
9141;BME280;46330;50.822;7.126;2023-04-05T05:29:47;101626.50;;;0.18;82.23
9141;BME280;46330;50.822;7.126;2023-04-05T05:32:14;101620.78;;;0.25;81.56
9141;BME280;46330;50.822;7.126;2023-04-05T05:34:42;101622.06;;;0.36;81.88
9141;BME280;46330;50.822;7.126;2023-04-05T05:37:11;101623.97;;;0.41;81.33
9141;BME280;46330;50.822;7.126;2023-04-05T05:39:39;101615.38;;;0.41;81.34
9141;BME280;46330;50.822;7.126;2023-04-05T05:42:08;101614.25;;;0.57;80.27
9141;BME280;46330;50.822;7.126;2023-04-05T05:44:36;101610.84;;;0.81;79.67
9141;BME280;46330;50.822;7.126;2023-04-05T05:47:04;101613.41;;;0.81;79.36
9141;BME280;46330;50.822;7.126;2023-04-05T05:49:32;101609.75;;;0.98;79.62
9141;BME280;46330;50.822;7.126;2023-04-05T05:52:00;101619.56;;;1.34;77.46
9141;BME280;46330;50.822;7.126;2023-04-05T05:54:29;101617.91;;;1.61;76.06
9141;BME280;46330;50.822;7.126;2023-04-05T05:56:57;101614.91;;;1.74;75.34
9141;BME280;46330;50.822;7.126;2023-04-05T05:59:27;101621.53;;;1.94;73.73
9141;BME280;46330;50.822;7.126;2023-04-05T06:01:55;101617.28;;;2.23;72.66
9141;BME280;46330;50.822;7.126;2023-04-05T06:04:23;101626.59;;;2.78;70.73
9141;BME280;46330;50.822;7.126;2023-04-05T06:06:51;101628.94;;;2.98;69.29
9141;BME280;46330;50.822;7.126;2023-04-05T06:09:20;101626.28;;;3.62;67.15
9141;BME280;46330;50.822;7.126;2023-04-05T06:11:50;101621.63;;;3.49;66.88
9141;BME280;46330;50.822;7.126;2023-04-05T06:14:22;101621.84;;;3.58;65.68
9141;BME280;46330;50.822;7.126;2023-04-05T06:16:52;101621.56;;;3.46;65.97
9141;BME280;46330;50.822;7.126;2023-04-05T06:19:21;101625.16;;;3.87;64.39
9141;BME280;46330;50.822;7.126;2023-04-05T06:21:49;101629.50;;;3.88;64.62
9141;BME280;46330;50.822;7.126;2023-04-05T06:24:17;101626.94;;;4.27;63.37
9141;BME280;46330;50.822;7.126;2023-04-05T06:26:45;101616.50;;;4.63;61.29
9141;BME280;46330;50.822;7.126;2023-04-05T06:29:13;101630.03;;;4.50;61.59
9141;BME280;46330;50.822;7.126;2023-04-05T06:31:40;101626.41;;;4.42;60.76
9141;BME280;46330;50.822;7.126;2023-04-05T06:34:10;101615.44;;;4.55;61.35
9141;BME280;46330;50.822;7.126;2023-04-05T06:36:38;101622.84;;;4.37;60.76
9141;BME280;46330;50.822;7.126;2023-04-05T06:39:06;101625.41;;;4.37;61.59
9141;BME280;46330;50.822;7.126;2023-04-05T06:41:34;101619.31;;;4.75;59.70
9141;BME280;46330;50.822;7.126;2023-04-05T06:44:02;101622.22;;;4.90;58.47
9141;BME280;46330;50.822;7.126;2023-04-05T06:46:30;101613.28;;;5.70;56.44
9141;BME280;46330;50.822;7.126;2023-04-05T06:48:58;101619.34;;;5.21;57.90
9141;BME280;46330;50.822;7.126;2023-04-05T06:51:31;101608.06;;;5.69;55.83
9141;BME280;46330;50.822;7.126;2023-04-05T06:54:00;101617.41;;;6.12;54.62
9141;BME280;46330;50.822;7.126;2023-04-05T06:56:29;101607.50;;;5.86;54.52
9141;BME280;46330;50.822;7.126;2023-04-05T06:58:56;101621.78;;;6.13;53.57
9141;BME280;46330;50.822;7.126;2023-04-05T07:01:25;101617.16;;;5.95;53.56
9141;BME280;46330;50.822;7.126;2023-04-05T07:03:53;101619.78;;;5.97;53.87
9141;BME280;46330;50.822;7.126;2023-04-05T07:06:21;101614.97;;;6.90;52.17
9141;BME280;46330;50.822;7.126;2023-04-05T07:08:51;101611.72;;;7.11;50.32
9141;BME280;46330;50.822;7.126;2023-04-05T07:11:19;101610.03;;;7.14;49.87
9141;BME280;46330;50.822;7.126;2023-04-05T07:13:47;101610.13;;;7.23;49.84
9141;BME280;46330;50.822;7.126;2023-04-05T07:16:15;101603.41;;;7.46;49.22
9141;BME280;46330;50.822;7.126;2023-04-05T07:18:44;101605.72;;;7.18;48.04
9141;BME280;46330;50.822;7.126;2023-04-05T07:21:13;101595.72;;;7.63;47.86
9141;BME280;46330;50.822;7.126;2023-04-05T07:23:41;101600.63;;;8.44;46.06
9141;BME280;46330;50.822;7.126;2023-04-05T07:26:11;101596.97;;;8.13;45.86
9141;BME280;46330;50.822;7.126;2023-04-05T07:28:38;101596.03;;;8.02;45.89
9141;BME280;46330;50.822;7.126;2023-04-05T07:31:06;101599.59;;;8.15;45.99
9141;BME280;46330;50.822;7.126;2023-04-05T07:33:34;101597.38;;;7.52;46.76
9141;BME280;46330;50.822;7.126;2023-04-05T07:36:03;101601.09;;;7.78;46.71
9141;BME280;46330;50.822;7.126;2023-04-05T07:38:31;101597.06;;;8.29;44.34
9141;BME280;46330;50.822;7.126;2023-04-05T07:40:59;101597.25;;;8.70;43.90
9141;BME280;46330;50.822;7.126;2023-04-05T07:43:28;101589.59;;;9.56;43.21
9141;BME280;46330;50.822;7.126;2023-04-05T07:46:00;101585.22;;;9.99;41.89
9141;BME280;46330;50.822;7.126;2023-04-05T07:48:29;101592.06;;;8.73;43.66
9141;BME280;46330;50.822;7.126;2023-04-05T07:51:02;101586.13;;;9.42;42.58
9141;BME280;46330;50.822;7.126;2023-04-05T07:53:30;101592.16;;;10.36;41.14
9141;BME280;46330;50.822;7.126;2023-04-05T07:56:02;101598.22;;;10.44;40.30
9141;BME280;46330;50.822;7.126;2023-04-05T07:58:32;101593.97;;;9.73;41.09
9141;BME280;46330;50.822;7.126;2023-04-05T08:01:00;101596.19;;;11.08;40.77
9141;BME280;46330;50.822;7.126;2023-04-05T08:03:29;101590.97;;;10.99;39.12
9141;BME280;46330;50.822;7.126;2023-04-05T08:05:57;101592.16;;;10.12;40.53
9141;BME280;46330;50.822;7.126;2023-04-05T08:08:25;101593.56;;;11.02;40.32
9141;BME280;46330;50.822;7.126;2023-04-05T08:10:53;101592.56;;;11.21;39.88
9141;BME280;46330;50.822;7.126;2023-04-05T08:13:21;101589.81;;;11.43;38.55
9141;BME280;46330;50.822;7.126;2023-04-05T08:15:50;101588.25;;;11.17;39.22
9141;BME280;46330;50.822;7.126;2023-04-05T08:18:18;101575.63;;;12.52;36.95
9141;BME280;46330;50.822;7.126;2023-04-05T08:20:50;101582.97;;;12.24;36.88
9141;BME280;46330;50.822;7.126;2023-04-05T08:23:18;101581.84;;;12.48;36.59
9141;BME280;46330;50.822;7.126;2023-04-05T08:25:46;101583.22;;;12.76;36.04
9141;BME280;46330;50.822;7.126;2023-04-05T08:28:14;101582.50;;;13.29;35.22
9141;BME280;46330;50.822;7.126;2023-04-05T08:30:42;101578.59;;;13.54;35.69
9141;BME280;46330;50.822;7.126;2023-04-05T08:33:12;101581.69;;;13.25;35.47
9141;BME280;46330;50.822;7.126;2023-04-05T08:35:40;101582.19;;;12.16;35.83
9141;BME280;46330;50.822;7.126;2023-04-05T08:38:09;101576.28;;;12.72;35.83
9141;BME280;46330;50.822;7.126;2023-04-05T08:40:39;101574.81;;;14.18;33.26
9141;BME280;46330;50.822;7.126;2023-04-05T08:43:12;101564.56;;;14.48;32.92
9141;BME280;46330;50.822;7.126;2023-04-05T08:45:49;101574.63;;;15.11;32.56
9141;BME280;46330;50.822;7.126;2023-04-05T08:48:19;101576.22;;;15.56;31.34
9141;BME280;46330;50.822;7.126;2023-04-05T08:50:50;101575.72;;;15.39;31.48
9141;BME280;46330;50.822;7.126;2023-04-05T08:53:19;101569.41;;;15.10;31.64
9141;BME280;46330;50.822;7.126;2023-04-05T08:55:48;101567.81;;;15.01;31.09
9141;BME280;46330;50.822;7.126;2023-04-05T08:58:19;101573.59;;;15.17;29.89
9141;BME280;46330;50.822;7.126;2023-04-05T09:00:49;101563.75;;;14.88;31.58
9141;BME280;46330;50.822;7.126;2023-04-05T09:03:21;101564.00;;;15.14;30.82
9141;BME280;46330;50.822;7.126;2023-04-05T09:05:50;101565.13;;;14.64;31.57
9141;BME280;46330;50.822;7.126;2023-04-05T09:08:18;101567.69;;;14.67;31.85
9141;BME280;46330;50.822;7.126;2023-04-05T09:10:48;101561.59;;;14.65;31.22
9141;BME280;46330;50.822;7.126;2023-04-05T09:13:17;101564.66;;;15.25;30.76
9141;BME280;46330;50.822;7.126;2023-04-05T09:15:45;101569.69;;;15.34;30.50
9141;BME280;46330;50.822;7.126;2023-04-05T09:18:13;101561.19;;;15.92;29.08
9141;BME280;46330;50.822;7.126;2023-04-05T09:21:01;101566.09;;;16.38;29.45
9141;BME280;46330;50.822;7.126;2023-04-05T09:23:30;101560.53;;;16.17;29.20
9141;BME280;46330;50.822;7.126;2023-04-05T09:25:58;101564.75;;;15.57;30.23
9141;BME280;46330;50.822;7.126;2023-04-05T09:28:41;101553.91;;;14.96;30.96
9141;BME280;46330;50.822;7.126;2023-04-05T09:31:28;101556.53;;;16.34;29.29
9141;BME280;46330;50.822;7.126;2023-04-05T09:33:57;101547.41;;;17.04;27.53
9141;BME280;46330;50.822;7.126;2023-04-05T09:36:28;101540.72;;;16.63;27.89
9141;BME280;46330;50.822;7.126;2023-04-05T09:39:05;101559.44;;;15.59;28.73
9141;BME280;46330;50.822;7.126;2023-04-05T09:41:34;101544.78;;;16.44;27.72
9141;BME280;46330;50.822;7.126;2023-04-05T09:44:03;101558.84;;;15.46;28.22
9141;BME280;46330;50.822;7.126;2023-04-05T09:46:32;101542.31;;;15.75;28.11
9141;BME280;46330;50.822;7.126;2023-04-05T09:49:04;101538.69;;;17.29;26.46
9141;BME280;46330;50.822;7.126;2023-04-05T09:51:35;101532.53;;;16.73;26.42
9141;BME280;46330;50.822;7.126;2023-04-05T09:54:08;101536.22;;;17.77;24.98
9141;BME280;46330;50.822;7.126;2023-04-05T09:56:37;101533.34;;;17.58;25.57
9141;BME280;46330;50.822;7.126;2023-04-05T09:59:07;101529.06;;;17.26;25.97
9141;BME280;46330;50.822;7.126;2023-04-05T10:01:37;101523.06;;;16.65;26.89
9141;BME280;46330;50.822;7.126;2023-04-05T10:04:07;101527.59;;;17.17;25.67
9141;BME280;46330;50.822;7.126;2023-04-05T10:06:38;101517.91;;;17.95;25.27
9141;BME280;46330;50.822;7.126;2023-04-05T10:09:07;101526.06;;;17.10;27.50
9141;BME280;46330;50.822;7.126;2023-04-05T10:11:37;101521.84;;;17.59;27.28
9141;BME280;46330;50.822;7.126;2023-04-05T10:14:06;101519.75;;;16.59;26.50
9141;BME280;46330;50.822;7.126;2023-04-05T10:16:37;101517.19;;;16.25;27.26
9141;BME280;46330;50.822;7.126;2023-04-05T10:19:15;101528.09;;;15.81;27.91
9141;BME280;46330;50.822;7.126;2023-04-05T10:21:49;101524.97;;;15.30;28.45
9141;BME280;46330;50.822;7.126;2023-04-05T10:24:32;101521.31;;;15.00;30.67
9141;BME280;46330;50.822;7.126;2023-04-05T10:27:04;101515.97;;;16.37;27.91
9141;BME280;46330;50.822;7.126;2023-04-05T10:29:37;101512.44;;;16.67;26.34
9141;BME280;46330;50.822;7.126;2023-04-05T10:32:12;101507.72;;;16.18;27.08
9141;BME280;46330;50.822;7.126;2023-04-05T10:34:52;101501.94;;;17.97;25.04
9141;BME280;46330;50.822;7.126;2023-04-05T10:37:32;101494.56;;;17.82;24.73
9141;BME280;46330;50.822;7.126;2023-04-05T10:40:07;101507.66;;;18.57;24.20
9141;BME280;46330;50.822;7.126;2023-04-05T10:42:41;101498.75;;;16.54;24.86
9141;BME280;46330;50.822;7.126;2023-04-05T10:45:11;101508.84;;;16.97;25.44
9141;BME280;46330;50.822;7.126;2023-04-05T10:47:46;101511.50;;;15.42;27.56
9141;BME280;46330;50.822;7.126;2023-04-05T10:50:20;101503.41;;;16.14;26.49
9141;BME280;46330;50.822;7.126;2023-04-05T10:52:51;101490.69;;;16.87;26.25
9141;BME280;46330;50.822;7.126;2023-04-05T10:55:19;101492.63;;;17.62;27.17
9141;BME280;46330;50.822;7.126;2023-04-05T10:57:48;101485.44;;;18.61;25.61
9141;BME280;46330;50.822;7.126;2023-04-05T11:00:17;101476.19;;;18.48;25.37
9141;BME280;46330;50.822;7.126;2023-04-05T11:02:47;101474.03;;;17.88;24.30
9141;BME280;46330;50.822;7.126;2023-04-05T11:05:30;101479.13;;;17.17;26.07
9141;BME280;46330;50.822;7.126;2023-04-05T11:08:03;101486.19;;;17.43;25.47
9141;BME280;46330;50.822;7.126;2023-04-05T11:10:34;101484.72;;;17.08;24.56
9141;BME280;46330;50.822;7.126;2023-04-05T11:13:07;101470.41;;;17.66;25.48
9141;BME280;46330;50.822;7.126;2023-04-05T11:15:37;101470.84;;;18.50;23.97
9141;BME280;46330;50.822;7.126;2023-04-05T11:18:07;101473.09;;;18.14;23.62
9141;BME280;46330;50.822;7.126;2023-04-05T11:20:46;101474.16;;;17.85;24.53
9141;BME280;46330;50.822;7.126;2023-04-05T11:23:20;101472.00;;;18.88;23.07
9141;BME280;46330;50.822;7.126;2023-04-05T11:28:23;101459.63;;;17.21;24.00
9141;BME280;46330;50.822;7.126;2023-04-05T11:30:52;101467.44;;;15.81;25.55
9141;BME280;46330;50.822;7.126;2023-04-05T11:33:36;101458.34;;;16.79;24.90
9141;BME280;46330;50.822;7.126;2023-04-05T11:36:06;101461.75;;;14.93;27.33
9141;BME280;46330;50.822;7.126;2023-04-05T11:38:36;101463.41;;;16.86;26.90
9141;BME280;46330;50.822;7.126;2023-04-05T11:41:10;101446.56;;;17.41;24.77
9141;BME280;46330;50.822;7.126;2023-04-05T11:43:43;101450.09;;;17.15;24.43
9141;BME280;46330;50.822;7.126;2023-04-05T11:46:13;101445.53;;;17.20;23.89
9141;BME280;46330;50.822;7.126;2023-04-05T11:48:41;101443.66;;;18.21;24.56
9141;BME280;46330;50.822;7.126;2023-04-05T11:51:09;101436.28;;;17.07;22.21
9141;BME280;46330;50.822;7.126;2023-04-05T11:53:39;101433.72;;;17.31;21.38
9141;BME280;46330;50.822;7.126;2023-04-05T11:56:12;101426.25;;;17.68;21.59
9141;BME280;46330;50.822;7.126;2023-04-05T11:58:41;101424.09;;;17.53;22.77
9141;BME280;46330;50.822;7.126;2023-04-05T12:01:09;101416.72;;;17.38;21.15
9141;BME280;46330;50.822;7.126;2023-04-05T12:03:38;101416.25;;;17.51;22.65
9141;BME280;46330;50.822;7.126;2023-04-05T12:06:06;101418.69;;;18.05;23.29
9141;BME280;46330;50.822;7.126;2023-04-05T12:08:39;101427.47;;;18.29;23.89
9141;BME280;46330;50.822;7.126;2023-04-05T12:11:09;101424.28;;;17.48;24.89
9141;BME280;46330;50.822;7.126;2023-04-05T12:13:38;101424.16;;;17.27;23.55
9141;BME280;46330;50.822;7.126;2023-04-05T12:16:07;101419.47;;;17.35;23.38
9141;BME280;46330;50.822;7.126;2023-04-05T12:18:36;101414.66;;;17.21;23.54
9141;BME280;46330;50.822;7.126;2023-04-05T12:21:06;101414.84;;;16.90;23.80
9141;BME280;46330;50.822;7.126;2023-04-05T12:23:35;101404.97;;;16.40;23.21
9141;BME280;46330;50.822;7.126;2023-04-05T12:26:06;101411.00;;;16.73;24.09
9141;BME280;46330;50.822;7.126;2023-04-05T12:28:50;101413.63;;;16.73;22.39
9141;BME280;46330;50.822;7.126;2023-04-05T12:31:39;101402.81;;;17.06;21.45
9141;BME280;46330;50.822;7.126;2023-04-05T12:34:08;101399.06;;;17.64;21.48
9141;BME280;46330;50.822;7.126;2023-04-05T12:36:38;101389.72;;;17.53;20.38
9141;BME280;46330;50.822;7.126;2023-04-05T12:39:07;101380.53;;;17.13;19.16
9141;BME280;46330;50.822;7.126;2023-04-05T12:41:37;101390.41;;;17.59;22.09
9141;BME280;46330;50.822;7.126;2023-04-05T12:44:11;101378.78;;;17.14;20.24
9141;BME280;46330;50.822;7.126;2023-04-05T12:46:42;101385.53;;;17.72;21.81
9141;BME280;46330;50.822;7.126;2023-04-05T12:49:11;101377.72;;;16.93;21.74
9141;BME280;46330;50.822;7.126;2023-04-05T12:51:40;101373.75;;;17.31;21.59
9141;BME280;46330;50.822;7.126;2023-04-05T12:54:11;101380.13;;;16.18;22.77
9141;BME280;46330;50.822;7.126;2023-04-05T12:56:41;101375.63;;;16.49;20.43
9141;BME280;46330;50.822;7.126;2023-04-05T12:59:09;101388.34;;;16.65;22.71
9141;BME280;46330;50.822;7.126;2023-04-05T13:01:37;101378.56;;;16.94;22.88
9141;BME280;46330;50.822;7.126;2023-04-05T13:04:05;101362.94;;;16.32;19.93
9141;BME280;46330;50.822;7.126;2023-04-05T13:06:42;101359.56;;;16.56;20.18
9141;BME280;46330;50.822;7.126;2023-04-05T13:09:12;101370.69;;;16.66;21.34
9141;BME280;46330;50.822;7.126;2023-04-05T13:11:41;101371.91;;;16.82;22.41
9141;BME280;46330;50.822;7.126;2023-04-05T13:14:09;101370.22;;;16.81;22.29
9141;BME280;46330;50.822;7.126;2023-04-05T13:16:37;101368.50;;;16.51;24.21
9141;BME280;46330;50.822;7.126;2023-04-05T13:19:06;101375.06;;;16.39;23.53
9141;BME280;46330;50.822;7.126;2023-04-05T13:21:34;101357.28;;;16.98;21.93
9141;BME280;46330;50.822;7.126;2023-04-05T13:24:02;101363.44;;;16.73;24.86
9141;BME280;46330;50.822;7.126;2023-04-05T13:26:30;101356.81;;;16.59;23.86
9141;BME280;46330;50.822;7.126;2023-04-05T13:28:59;101350.31;;;17.45;22.93
9141;BME280;46330;50.822;7.126;2023-04-05T13:31:27;101354.63;;;17.48;25.10
9141;BME280;46330;50.822;7.126;2023-04-05T13:33:55;101353.06;;;16.93;24.13